sensor_id;sensor_type;location;lat;lon;timestamp;P1;durP1;ratioP1;P2;durP2;ratioP2
57746;SDS011;43580;44.014;20.466;2023-12-20T00:02:22;307.00;;;151.27;;
57746;SDS011;43580;44.014;20.466;2023-12-20T00:04:48;315.85;;;157.32;;
57746;SDS011;43580;44.014;20.466;2023-12-20T00:07:15;304.85;;;154.43;;
57746;SDS011;43580;44.014;20.466;2023-12-20T00:09:41;337.35;;;173.32;;
57746;SDS011;43580;44.014;20.466;2023-12-20T00:12:07;323.27;;;157.25;;
57746;SDS011;43580;44.014;20.466;2023-12-20T00:14:33;295.92;;;145.27;;
57746;SDS011;43580;44.014;20.466;2023-12-20T00:16:59;304.98;;;149.52;;
57746;SDS011;43580;44.014;20.466;2023-12-20T00:19:30;283.95;;;142.52;;
57746;SDS011;43580;44.014;20.466;2023-12-20T00:21:56;335.13;;;158.35;;
57746;SDS011;43580;44.014;20.466;2023-12-20T00:24:24;394.38;;;201.38;;
57746;SDS011;43580;44.014;20.466;2023-12-20T00:26:50;487.33;;;232.50;;
57746;SDS011;43580;44.014;20.466;2023-12-20T00:29:16;390.15;;;197.43;;
57746;SDS011;43580;44.014;20.466;2023-12-20T00:31:43;352.13;;;188.90;;
57746;SDS011;43580;44.014;20.466;2023-12-20T00:34:09;331.98;;;168.43;;
57746;SDS011;43580;44.014;20.466;2023-12-20T00:36:36;303.23;;;149.63;;
57746;SDS011;43580;44.014;20.466;2023-12-20T00:39:02;347.80;;;158.90;;
57746;SDS011;43580;44.014;20.466;2023-12-20T00:41:29;314.00;;;143.38;;
57746;SDS011;43580;44.014;20.466;2023-12-20T00:43:55;315.73;;;142.65;;
57746;SDS011;43580;44.014;20.466;2023-12-20T00:46:21;274.92;;;133.55;;
57746;SDS011;43580;44.014;20.466;2023-12-20T00:48:47;265.55;;;124.93;;
57746;SDS011;43580;44.014;20.466;2023-12-20T00:51:13;258.92;;;126.03;;
57746;SDS011;43580;44.014;20.466;2023-12-20T00:53:39;260.92;;;124.07;;
57746;SDS011;43580;44.014;20.466;2023-12-20T00:56:06;261.23;;;128.85;;
57746;SDS011;43580;44.014;20.466;2023-12-20T00:58:32;265.73;;;123.28;;
57746;SDS011;43580;44.014;20.466;2023-12-20T01:00:58;245.80;;;120.85;;
57746;SDS011;43580;44.014;20.466;2023-12-20T01:03:24;240.32;;;121.40;;
57746;SDS011;43580;44.014;20.466;2023-12-20T01:05:50;212.80;;;106.40;;
57746;SDS011;43580;44.014;20.466;2023-12-20T01:08:16;218.73;;;109.13;;
57746;SDS011;43580;44.014;20.466;2023-12-20T01:10:42;239.07;;;112.00;;
57746;SDS011;43580;44.014;20.466;2023-12-20T01:13:08;311.25;;;147.55;;
57746;SDS011;43580;44.014;20.466;2023-12-20T01:15:35;301.33;;;149.52;;
57746;SDS011;43580;44.014;20.466;2023-12-20T01:18:01;284.55;;;143.27;;
57746;SDS011;43580;44.014;20.466;2023-12-20T01:20:27;276.00;;;139.27;;
57746;SDS011;43580;44.014;20.466;2023-12-20T01:22:53;283.83;;;141.35;;
57746;SDS011;43580;44.014;20.466;2023-12-20T01:25:19;287.65;;;138.50;;
57746;SDS011;43580;44.014;20.466;2023-12-20T01:27:46;251.57;;;124.72;;
57746;SDS011;43580;44.014;20.466;2023-12-20T01:30:12;213.15;;;102.30;;
57746;SDS011;43580;44.014;20.466;2023-12-20T01:32:38;216.65;;;102.90;;
57746;SDS011;43580;44.014;20.466;2023-12-20T01:35:04;230.68;;;112.25;;
57746;SDS011;43580;44.014;20.466;2023-12-20T01:37:30;246.13;;;119.22;;
57746;SDS011;43580;44.014;20.466;2023-12-20T01:39:56;251.63;;;120.47;;
57746;SDS011;43580;44.014;20.466;2023-12-20T01:42:23;257.20;;;129.00;;
57746;SDS011;43580;44.014;20.466;2023-12-20T01:44:49;263.40;;;126.72;;
57746;SDS011;43580;44.014;20.466;2023-12-20T01:47:16;251.23;;;120.15;;
57746;SDS011;43580;44.014;20.466;2023-12-20T01:49:42;249.90;;;114.60;;
57746;SDS011;43580;44.014;20.466;2023-12-20T01:52:08;243.70;;;114.85;;
57746;SDS011;43580;44.014;20.466;2023-12-20T01:54:35;237.35;;;109.95;;
57746;SDS011;43580;44.014;20.466;2023-12-20T01:57:01;222.63;;;107.10;;
57746;SDS011;43580;44.014;20.466;2023-12-20T01:59:28;220.43;;;109.20;;
57746;SDS011;43580;44.014;20.466;2023-12-20T02:01:55;213.60;;;108.40;;
57746;SDS011;43580;44.014;20.466;2023-12-20T02:04:21;223.10;;;107.05;;
57746;SDS011;43580;44.014;20.466;2023-12-20T02:06:47;232.93;;;105.22;;
57746;SDS011;43580;44.014;20.466;2023-12-20T02:09:14;266.52;;;121.18;;
57746;SDS011;43580;44.014;20.466;2023-12-20T02:11:41;287.58;;;130.68;;
57746;SDS011;43580;44.014;20.466;2023-12-20T02:14:07;340.08;;;145.65;;
57746;SDS011;43580;44.014;20.466;2023-12-20T02:16:33;280.20;;;132.50;;
57746;SDS011;43580;44.014;20.466;2023-12-20T02:18:59;273.27;;;127.43;;
57746;SDS011;43580;44.014;20.466;2023-12-20T02:21:31;249.57;;;124.15;;
57746;SDS011;43580;44.014;20.466;2023-12-20T02:23:58;248.90;;;123.82;;
57746;SDS011;43580;44.014;20.466;2023-12-20T02:26:24;233.88;;;112.93;;
57746;SDS011;43580;44.014;20.466;2023-12-20T02:28:51;235.80;;;113.97;;
57746;SDS011;43580;44.014;20.466;2023-12-20T02:31:18;255.40;;;121.90;;
57746;SDS011;43580;44.014;20.466;2023-12-20T02:33:47;301.92;;;142.05;;
57746;SDS011;43580;44.014;20.466;2023-12-20T02:36:13;352.83;;;155.98;;
57746;SDS011;43580;44.014;20.466;2023-12-20T02:38:39;361.60;;;158.48;;
57746;SDS011;43580;44.014;20.466;2023-12-20T02:41:05;295.33;;;137.60;;
57746;SDS011;43580;44.014;20.466;2023-12-20T02:43:31;282.05;;;132.85;;
57746;SDS011;43580;44.014;20.466;2023-12-20T02:45:57;246.30;;;121.95;;
57746;SDS011;43580;44.014;20.466;2023-12-20T02:48:23;255.60;;;130.45;;
57746;SDS011;43580;44.014;20.466;2023-12-20T02:50:49;306.58;;;139.13;;
57746;SDS011;43580;44.014;20.466;2023-12-20T02:53:15;289.63;;;132.95;;
57746;SDS011;43580;44.014;20.466;2023-12-20T02:55:42;334.38;;;144.13;;
57746;SDS011;43580;44.014;20.466;2023-12-20T02:58:08;244.60;;;123.32;;
57746;SDS011;43580;44.014;20.466;2023-12-20T03:00:36;231.00;;;116.65;;
57746;SDS011;43580;44.014;20.466;2023-12-20T03:03:02;255.27;;;125.53;;
57746;SDS011;43580;44.014;20.466;2023-12-20T03:05:28;250.07;;;129.95;;
57746;SDS011;43580;44.014;20.466;2023-12-20T03:07:55;266.10;;;131.93;;
57746;SDS011;43580;44.014;20.466;2023-12-20T03:10:21;261.75;;;126.88;;
57746;SDS011;43580;44.014;20.466;2023-12-20T03:12:47;276.42;;;131.82;;
57746;SDS011;43580;44.014;20.466;2023-12-20T03:15:13;257.27;;;128.93;;
57746;SDS011;43580;44.014;20.466;2023-12-20T03:17:39;244.80;;;120.63;;
57746;SDS011;43580;44.014;20.466;2023-12-20T03:20:06;267.42;;;135.98;;
57746;SDS011;43580;44.014;20.466;2023-12-20T03:22:32;262.92;;;127.72;;
57746;SDS011;43580;44.014;20.466;2023-12-20T03:24:58;242.38;;;126.05;;
57746;SDS011;43580;44.014;20.466;2023-12-20T03:27:27;255.07;;;128.60;;
57746;SDS011;43580;44.014;20.466;2023-12-20T03:29:53;246.77;;;122.75;;
57746;SDS011;43580;44.014;20.466;2023-12-20T03:32:19;238.15;;;120.43;;
57746;SDS011;43580;44.014;20.466;2023-12-20T03:34:45;262.45;;;130.23;;
57746;SDS011;43580;44.014;20.466;2023-12-20T03:37:11;241.25;;;120.57;;
57746;SDS011;43580;44.014;20.466;2023-12-20T03:39:37;265.05;;;132.52;;
57746;SDS011;43580;44.014;20.466;2023-12-20T03:42:06;226.77;;;117.72;;
57746;SDS011;43580;44.014;20.466;2023-12-20T03:44:32;217.70;;;111.40;;
57746;SDS011;43580;44.014;20.466;2023-12-20T03:46:58;218.10;;;110.80;;
57746;SDS011;43580;44.014;20.466;2023-12-20T03:49:24;199.55;;;103.32;;
57746;SDS011;43580;44.014;20.466;2023-12-20T03:51:52;515.08;;;243.32;;
57746;SDS011;43580;44.014;20.466;2023-12-20T03:54:18;265.77;;;125.68;;
57746;SDS011;43580;44.014;20.466;2023-12-20T03:56:44;195.00;;;96.95;;
57746;SDS011;43580;44.014;20.466;2023-12-20T03:59:10;292.42;;;144.55;;
57746;SDS011;43580;44.014;20.466;2023-12-20T04:01:37;251.50;;;125.97;;
57746;SDS011;43580;44.014;20.466;2023-12-20T04:04:03;220.20;;;112.05;;
57746;SDS011;43580;44.014;20.466;2023-12-20T04:06:29;338.65;;;159.27;;
57746;SDS011;43580;44.014;20.466;2023-12-20T04:08:55;231.75;;;114.72;;
57746;SDS011;43580;44.014;20.466;2023-12-20T04:11:21;202.95;;;105.82;;
57746;SDS011;43580;44.014;20.466;2023-12-20T04:13:47;214.80;;;110.47;;
57746;SDS011;43580;44.014;20.466;2023-12-20T04:16:13;218.50;;;111.82;;
57746;SDS011;43580;44.014;20.466;2023-12-20T04:18:39;200.02;;;103.00;;
57746;SDS011;43580;44.014;20.466;2023-12-20T04:21:05;257.55;;;133.75;;
57746;SDS011;43580;44.014;20.466;2023-12-20T04:23:32;213.35;;;112.63;;
57746;SDS011;43580;44.014;20.466;2023-12-20T04:25:58;234.25;;;117.95;;
57746;SDS011;43580;44.014;20.466;2023-12-20T04:28:24;223.60;;;116.38;;
57746;SDS011;43580;44.014;20.466;2023-12-20T04:30:50;336.35;;;158.65;;
57746;SDS011;43580;44.014;20.466;2023-12-20T04:33:21;259.55;;;130.10;;
57746;SDS011;43580;44.014;20.466;2023-12-20T04:35:48;263.88;;;129.77;;
57746;SDS011;43580;44.014;20.466;2023-12-20T04:38:14;211.25;;;110.38;;
57746;SDS011;43580;44.014;20.466;2023-12-20T04:40:40;185.98;;;99.25;;
57746;SDS011;43580;44.014;20.466;2023-12-20T04:43:06;179.48;;;95.78;;
57746;SDS011;43580;44.014;20.466;2023-12-20T04:45:33;216.70;;;111.55;;
57746;SDS011;43580;44.014;20.466;2023-12-20T04:48:00;210.25;;;104.68;;
57746;SDS011;43580;44.014;20.466;2023-12-20T04:50:26;208.93;;;109.35;;
57746;SDS011;43580;44.014;20.466;2023-12-20T04:52:55;236.55;;;118.53;;
57746;SDS011;43580;44.014;20.466;2023-12-20T04:55:21;201.23;;;103.75;;
57746;SDS011;43580;44.014;20.466;2023-12-20T04:57:47;205.35;;;105.88;;
57746;SDS011;43580;44.014;20.466;2023-12-20T05:00:13;211.27;;;111.65;;
57746;SDS011;43580;44.014;20.466;2023-12-20T05:02:40;226.48;;;115.13;;
57746;SDS011;43580;44.014;20.466;2023-12-20T05:05:06;239.02;;;122.07;;
57746;SDS011;43580;44.014;20.466;2023-12-20T05:07:33;239.20;;;121.25;;
57746;SDS011;43580;44.014;20.466;2023-12-20T05:09:59;223.27;;;115.05;;
57746;SDS011;43580;44.014;20.466;2023-12-20T05:12:25;273.67;;;133.52;;
57746;SDS011;43580;44.014;20.466;2023-12-20T05:14:52;264.27;;;134.30;;
57746;SDS011;43580;44.014;20.466;2023-12-20T05:17:18;235.80;;;122.72;;
57746;SDS011;43580;44.014;20.466;2023-12-20T05:19:47;204.70;;;113.47;;
57746;SDS011;43580;44.014;20.466;2023-12-20T05:22:13;219.80;;;118.30;;
57746;SDS011;43580;44.014;20.466;2023-12-20T05:24:39;219.93;;;123.95;;
57746;SDS011;43580;44.014;20.466;2023-12-20T05:27:05;206.98;;;113.75;;
57746;SDS011;43580;44.014;20.466;2023-12-20T05:29:31;208.48;;;112.75;;
57746;SDS011;43580;44.014;20.466;2023-12-20T05:31:58;189.35;;;104.63;;
57746;SDS011;43580;44.014;20.466;2023-12-20T05:34:24;186.55;;;101.50;;
57746;SDS011;43580;44.014;20.466;2023-12-20T05:36:50;195.73;;;107.63;;
57746;SDS011;43580;44.014;20.466;2023-12-20T05:39:16;192.55;;;106.18;;
57746;SDS011;43580;44.014;20.466;2023-12-20T05:41:42;185.73;;;103.68;;
57746;SDS011;43580;44.014;20.466;2023-12-20T05:44:08;185.00;;;102.88;;
57746;SDS011;43580;44.014;20.466;2023-12-20T05:46:37;175.25;;;95.57;;
57746;SDS011;43580;44.014;20.466;2023-12-20T05:49:03;184.82;;;101.32;;
57746;SDS011;43580;44.014;20.466;2023-12-20T05:51:29;201.65;;;108.68;;
57746;SDS011;43580;44.014;20.466;2023-12-20T05:53:55;181.38;;;94.90;;
57746;SDS011;43580;44.014;20.466;2023-12-20T05:56:21;193.35;;;106.38;;
57746;SDS011;43580;44.014;20.466;2023-12-20T05:58:48;200.50;;;105.88;;
57746;SDS011;43580;44.014;20.466;2023-12-20T06:01:16;230.60;;;119.10;;
57746;SDS011;43580;44.014;20.466;2023-12-20T06:03:42;225.30;;;114.20;;
57746;SDS011;43580;44.014;20.466;2023-12-20T06:06:09;227.15;;;116.13;;
57746;SDS011;43580;44.014;20.466;2023-12-20T06:08:35;217.70;;;111.60;;
57746;SDS011;43580;44.014;20.466;2023-12-20T06:11:02;209.57;;;110.70;;
57746;SDS011;43580;44.014;20.466;2023-12-20T06:13:28;193.02;;;104.13;;
57746;SDS011;43580;44.014;20.466;2023-12-20T06:15:54;184.82;;;100.28;;
57746;SDS011;43580;44.014;20.466;2023-12-20T06:18:21;173.98;;;93.03;;
57746;SDS011;43580;44.014;20.466;2023-12-20T06:20:47;164.52;;;90.45;;
57746;SDS011;43580;44.014;20.466;2023-12-20T06:23:13;169.50;;;88.65;;
57746;SDS011;43580;44.014;20.466;2023-12-20T06:25:39;167.95;;;89.25;;
57746;SDS011;43580;44.014;20.466;2023-12-20T06:28:05;167.43;;;85.18;;
57746;SDS011;43580;44.014;20.466;2023-12-20T06:30:32;263.23;;;137.00;;
57746;SDS011;43580;44.014;20.466;2023-12-20T06:32:58;321.75;;;163.85;;
57746;SDS011;43580;44.014;20.466;2023-12-20T06:35:26;189.35;;;101.22;;
57746;SDS011;43580;44.014;20.466;2023-12-20T06:37:53;168.70;;;89.00;;
57746;SDS011;43580;44.014;20.466;2023-12-20T06:40:19;170.73;;;88.97;;
57746;SDS011;43580;44.014;20.466;2023-12-20T06:42:45;181.00;;;91.65;;
57746;SDS011;43580;44.014;20.466;2023-12-20T06:45:11;186.70;;;99.55;;
57746;SDS011;43580;44.014;20.466;2023-12-20T06:47:38;201.25;;;106.90;;
57746;SDS011;43580;44.014;20.466;2023-12-20T06:50:04;237.82;;;118.07;;
57746;SDS011;43580;44.014;20.466;2023-12-20T06:52:30;230.85;;;117.68;;
57746;SDS011;43580;44.014;20.466;2023-12-20T06:54:57;261.63;;;135.48;;
57746;SDS011;43580;44.014;20.466;2023-12-20T06:57:23;300.38;;;153.88;;
57746;SDS011;43580;44.014;20.466;2023-12-20T06:59:51;319.70;;;163.43;;
57746;SDS011;43580;44.014;20.466;2023-12-20T07:02:17;276.02;;;146.88;;
57746;SDS011;43580;44.014;20.466;2023-12-20T07:04:47;269.98;;;146.07;;
57746;SDS011;43580;44.014;20.466;2023-12-20T07:07:13;268.70;;;147.38;;
57746;SDS011;43580;44.014;20.466;2023-12-20T07:09:40;247.57;;;140.07;;
57746;SDS011;43580;44.014;20.466;2023-12-20T07:12:08;250.45;;;138.13;;
57746;SDS011;43580;44.014;20.466;2023-12-20T07:14:34;168.23;;;97.72;;
57746;SDS011;43580;44.014;20.466;2023-12-20T07:17:00;196.52;;;115.28;;
57746;SDS011;43580;44.014;20.466;2023-12-20T07:19:26;217.20;;;119.18;;
57746;SDS011;43580;44.014;20.466;2023-12-20T07:21:52;202.85;;;115.60;;
57746;SDS011;43580;44.014;20.466;2023-12-20T07:24:19;203.80;;;111.75;;
57746;SDS011;43580;44.014;20.466;2023-12-20T07:26:45;236.75;;;126.35;;
57746;SDS011;43580;44.014;20.466;2023-12-20T07:29:11;299.10;;;165.18;;
57746;SDS011;43580;44.014;20.466;2023-12-20T07:31:37;259.30;;;140.02;;
57746;SDS011;43580;44.014;20.466;2023-12-20T07:34:03;279.08;;;147.60;;
57746;SDS011;43580;44.014;20.466;2023-12-20T07:36:30;339.95;;;186.63;;
57746;SDS011;43580;44.014;20.466;2023-12-20T07:38:56;363.30;;;204.55;;
57746;SDS011;43580;44.014;20.466;2023-12-20T07:41:22;401.50;;;220.85;;
57746;SDS011;43580;44.014;20.466;2023-12-20T07:43:49;409.10;;;224.95;;
57746;SDS011;43580;44.014;20.466;2023-12-20T07:46:15;380.40;;;201.25;;
57746;SDS011;43580;44.014;20.466;2023-12-20T07:48:41;300.75;;;168.13;;
57746;SDS011;43580;44.014;20.466;2023-12-20T07:51:07;269.10;;;150.18;;
57746;SDS011;43580;44.014;20.466;2023-12-20T07:53:34;268.02;;;151.35;;
57746;SDS011;43580;44.014;20.466;2023-12-20T07:56:01;287.80;;;156.05;;
57746;SDS011;43580;44.014;20.466;2023-12-20T07:58:27;279.30;;;159.48;;
57746;SDS011;43580;44.014;20.466;2023-12-20T08:00:55;280.33;;;157.30;;
57746;SDS011;43580;44.014;20.466;2023-12-20T08:03:21;288.58;;;165.82;;
57746;SDS011;43580;44.014;20.466;2023-12-20T08:05:47;267.75;;;154.32;;
57746;SDS011;43580;44.014;20.466;2023-12-20T08:08:13;256.08;;;143.80;;
57746;SDS011;43580;44.014;20.466;2023-12-20T08:10:39;243.60;;;141.88;;
57746;SDS011;43580;44.014;20.466;2023-12-20T08:13:05;261.50;;;155.55;;
57746;SDS011;43580;44.014;20.466;2023-12-20T08:15:32;259.80;;;147.60;;
57746;SDS011;43580;44.014;20.466;2023-12-20T08:17:58;261.67;;;145.10;;
57746;SDS011;43580;44.014;20.466;2023-12-20T08:20:24;242.85;;;146.75;;
57746;SDS011;43580;44.014;20.466;2023-12-20T08:22:50;260.80;;;153.80;;
57746;SDS011;43580;44.014;20.466;2023-12-20T08:25:16;279.30;;;155.52;;
57746;SDS011;43580;44.014;20.466;2023-12-20T08:27:42;248.13;;;140.82;;
57746;SDS011;43580;44.014;20.466;2023-12-20T08:30:08;244.40;;;143.23;;
57746;SDS011;43580;44.014;20.466;2023-12-20T08:32:35;259.42;;;146.75;;
57746;SDS011;43580;44.014;20.466;2023-12-20T08:35:04;250.55;;;149.63;;
57746;SDS011;43580;44.014;20.466;2023-12-20T08:37:31;229.25;;;137.93;;
57746;SDS011;43580;44.014;20.466;2023-12-20T08:39:57;230.10;;;135.90;;
57746;SDS011;43580;44.014;20.466;2023-12-20T08:42:23;235.13;;;140.95;;
57746;SDS011;43580;44.014;20.466;2023-12-20T08:44:55;212.80;;;129.18;;
57746;SDS011;43580;44.014;20.466;2023-12-20T08:47:22;213.98;;;129.38;;
57746;SDS011;43580;44.014;20.466;2023-12-20T08:49:48;237.50;;;143.18;;
57746;SDS011;43580;44.014;20.466;2023-12-20T08:52:14;201.40;;;122.75;;
57746;SDS011;43580;44.014;20.466;2023-12-20T08:54:40;183.30;;;113.85;;
57746;SDS011;43580;44.014;20.466;2023-12-20T08:57:06;195.93;;;119.40;;
57746;SDS011;43580;44.014;20.466;2023-12-20T08:59:33;180.15;;;111.47;;
57746;SDS011;43580;44.014;20.466;2023-12-20T09:02:04;199.27;;;122.50;;
57746;SDS011;43580;44.014;20.466;2023-12-20T09:04:30;156.70;;;94.50;;
57746;SDS011;43580;44.014;20.466;2023-12-20T09:06:59;160.50;;;96.75;;
57746;SDS011;43580;44.014;20.466;2023-12-20T09:09:26;148.88;;;87.38;;
57746;SDS011;43580;44.014;20.466;2023-12-20T09:11:52;131.95;;;82.30;;
57746;SDS011;43580;44.014;20.466;2023-12-20T09:14:18;114.55;;;68.32;;
57746;SDS011;43580;44.014;20.466;2023-12-20T09:16:44;119.97;;;75.22;;
57746;SDS011;43580;44.014;20.466;2023-12-20T09:19:16;120.40;;;77.95;;
57746;SDS011;43580;44.014;20.466;2023-12-20T09:21:43;108.43;;;67.18;;
57746;SDS011;43580;44.014;20.466;2023-12-20T09:24:11;92.10;;;58.90;;
57746;SDS011;43580;44.014;20.466;2023-12-20T09:26:40;121.85;;;71.85;;
57746;SDS011;43580;44.014;20.466;2023-12-20T09:29:07;81.07;;;51.47;;
57746;SDS011;43580;44.014;20.466;2023-12-20T09:31:36;89.95;;;56.70;;
57746;SDS011;43580;44.014;20.466;2023-12-20T09:34:02;66.38;;;42.50;;
57746;SDS011;43580;44.014;20.466;2023-12-20T09:36:28;81.93;;;46.25;;
57746;SDS011;43580;44.014;20.466;2023-12-20T09:38:56;71.78;;;47.30;;
57746;SDS011;43580;44.014;20.466;2023-12-20T09:41:22;77.50;;;50.40;;
57746;SDS011;43580;44.014;20.466;2023-12-20T09:43:49;71.82;;;47.97;;
57746;SDS011;43580;44.014;20.466;2023-12-20T09:46:16;83.78;;;47.67;;
57746;SDS011;43580;44.014;20.466;2023-12-20T09:48:46;65.57;;;43.42;;
57746;SDS011;43580;44.014;20.466;2023-12-20T09:51:12;71.88;;;46.67;;
57746;SDS011;43580;44.014;20.466;2023-12-20T09:53:41;74.60;;;46.65;;
57746;SDS011;43580;44.014;20.466;2023-12-20T09:56:08;79.32;;;50.35;;
57746;SDS011;43580;44.014;20.466;2023-12-20T09:58:36;84.53;;;51.72;;
57746;SDS011;43580;44.014;20.466;2023-12-20T10:01:03;78.65;;;49.25;;
57746;SDS011;43580;44.014;20.466;2023-12-20T10:03:29;78.22;;;48.70;;
57746;SDS011;43580;44.014;20.466;2023-12-20T10:05:56;87.95;;;51.92;;
57746;SDS011;43580;44.014;20.466;2023-12-20T10:08:23;73.45;;;46.53;;
57746;SDS011;43580;44.014;20.466;2023-12-20T10:10:50;90.35;;;56.97;;
57746;SDS011;43580;44.014;20.466;2023-12-20T10:13:16;70.72;;;42.30;;
57746;SDS011;43580;44.014;20.466;2023-12-20T10:15:42;72.57;;;43.65;;
57746;SDS011;43580;44.014;20.466;2023-12-20T10:18:08;65.25;;;39.85;;
57746;SDS011;43580;44.014;20.466;2023-12-20T10:20:35;61.13;;;38.97;;
57746;SDS011;43580;44.014;20.466;2023-12-20T10:23:01;72.55;;;43.78;;
57746;SDS011;43580;44.014;20.466;2023-12-20T10:25:33;64.85;;;41.00;;
57746;SDS011;43580;44.014;20.466;2023-12-20T10:28:09;66.90;;;42.25;;
57746;SDS011;43580;44.014;20.466;2023-12-20T10:30:35;109.47;;;63.55;;
57746;SDS011;43580;44.014;20.466;2023-12-20T10:33:01;67.75;;;42.60;;
57746;SDS011;43580;44.014;20.466;2023-12-20T10:35:27;53.58;;;33.08;;
57746;SDS011;43580;44.014;20.466;2023-12-20T10:37:55;69.05;;;45.65;;
57746;SDS011;43580;44.014;20.466;2023-12-20T10:40:21;46.78;;;29.67;;
57746;SDS011;43580;44.014;20.466;2023-12-20T10:42:48;52.95;;;32.67;;
57746;SDS011;43580;44.014;20.466;2023-12-20T10:45:15;50.35;;;33.13;;
57746;SDS011;43580;44.014;20.466;2023-12-20T10:47:42;43.25;;;27.17;;
57746;SDS011;43580;44.014;20.466;2023-12-20T10:50:08;46.67;;;32.42;;
57746;SDS011;43580;44.014;20.466;2023-12-20T10:52:35;48.47;;;30.83;;
57746;SDS011;43580;44.014;20.466;2023-12-20T10:55:02;46.45;;;28.90;;
57746;SDS011;43580;44.014;20.466;2023-12-20T10:57:28;49.40;;;30.38;;
57746;SDS011;43580;44.014;20.466;2023-12-20T10:59:54;53.33;;;32.75;;
57746;SDS011;43580;44.014;20.466;2023-12-20T11:02:22;44.80;;;29.63;;
57746;SDS011;43580;44.014;20.466;2023-12-20T11:10:10;76.85;;;47.15;;
57746;SDS011;43580;44.014;20.466;2023-12-20T11:12:41;83.13;;;50.70;;
57746;SDS011;43580;44.014;20.466;2023-12-20T11:15:10;39.00;;;26.33;;
57746;SDS011;43580;44.014;20.466;2023-12-20T11:17:38;45.42;;;27.90;;
57746;SDS011;43580;44.014;20.466;2023-12-20T11:20:05;45.92;;;33.20;;
57746;SDS011;43580;44.014;20.466;2023-12-20T11:22:36;53.30;;;33.97;;
57746;SDS011;43580;44.014;20.466;2023-12-20T11:25:07;51.70;;;35.20;;
57746;SDS011;43580;44.014;20.466;2023-12-20T11:27:34;42.00;;;28.83;;
57746;SDS011;43580;44.014;20.466;2023-12-20T11:30:03;42.72;;;29.85;;
57746;SDS011;43580;44.014;20.466;2023-12-20T11:32:34;43.45;;;27.75;;
57746;SDS011;43580;44.014;20.466;2023-12-20T11:37:35;33.10;;;23.88;;
57746;SDS011;43580;44.014;20.466;2023-12-20T11:40:02;44.38;;;30.75;;
57746;SDS011;43580;44.014;20.466;2023-12-20T11:42:37;48.67;;;31.40;;
57746;SDS011;43580;44.014;20.466;2023-12-20T11:45:04;41.95;;;28.38;;
57746;SDS011;43580;44.014;20.466;2023-12-20T11:47:31;41.75;;;28.30;;
57746;SDS011;43580;44.014;20.466;2023-12-20T11:49:57;38.08;;;25.00;;
57746;SDS011;43580;44.014;20.466;2023-12-20T11:52:25;37.17;;;26.48;;
57746;SDS011;43580;44.014;20.466;2023-12-20T11:54:51;158.45;;;86.28;;
57746;SDS011;43580;44.014;20.466;2023-12-20T11:57:17;34.00;;;24.23;;
57746;SDS011;43580;44.014;20.466;2023-12-20T11:59:43;88.55;;;59.72;;
57746;SDS011;43580;44.014;20.466;2023-12-20T12:02:11;47.97;;;32.15;;
57746;SDS011;43580;44.014;20.466;2023-12-20T12:04:37;45.88;;;30.92;;
57746;SDS011;43580;44.014;20.466;2023-12-20T12:07:06;116.47;;;75.63;;
57746;SDS011;43580;44.014;20.466;2023-12-20T12:09:32;44.35;;;29.42;;
57746;SDS011;43580;44.014;20.466;2023-12-20T12:12:01;40.88;;;28.08;;
57746;SDS011;43580;44.014;20.466;2023-12-20T12:14:32;55.35;;;34.55;;
57746;SDS011;43580;44.014;20.466;2023-12-20T12:17:00;32.28;;;21.50;;
57746;SDS011;43580;44.014;20.466;2023-12-20T12:19:26;30.48;;;20.55;;
57746;SDS011;43580;44.014;20.466;2023-12-20T12:22:06;49.00;;;31.40;;
57746;SDS011;43580;44.014;20.466;2023-12-20T12:24:42;47.00;;;33.38;;
57746;SDS011;43580;44.014;20.466;2023-12-20T12:27:09;54.03;;;37.22;;
57746;SDS011;43580;44.014;20.466;2023-12-20T12:29:35;39.72;;;26.85;;
57746;SDS011;43580;44.014;20.466;2023-12-20T12:32:04;51.85;;;33.40;;
57746;SDS011;43580;44.014;20.466;2023-12-20T12:34:31;65.85;;;42.22;;
57746;SDS011;43580;44.014;20.466;2023-12-20T12:36:59;44.67;;;27.77;;
57746;SDS011;43580;44.014;20.466;2023-12-20T12:39:25;53.25;;;31.10;;
57746;SDS011;43580;44.014;20.466;2023-12-20T12:41:51;48.65;;;30.35;;
57746;SDS011;43580;44.014;20.466;2023-12-20T12:44:17;68.22;;;40.92;;
57746;SDS011;43580;44.014;20.466;2023-12-20T12:46:46;34.95;;;21.77;;
57746;SDS011;43580;44.014;20.466;2023-12-20T12:49:15;39.00;;;25.85;;
57746;SDS011;43580;44.014;20.466;2023-12-20T12:51:43;47.53;;;31.13;;
57746;SDS011;43580;44.014;20.466;2023-12-20T12:54:10;44.35;;;27.77;;
57746;SDS011;43580;44.014;20.466;2023-12-20T12:56:38;42.78;;;28.85;;
57746;SDS011;43580;44.014;20.466;2023-12-20T12:59:04;57.45;;;36.20;;
57746;SDS011;43580;44.014;20.466;2023-12-20T13:01:30;77.18;;;48.97;;
57746;SDS011;43580;44.014;20.466;2023-12-20T13:03:57;41.13;;;27.42;;
57746;SDS011;43580;44.014;20.466;2023-12-20T13:06:23;65.75;;;40.85;;
57746;SDS011;43580;44.014;20.466;2023-12-20T13:08:49;84.30;;;55.60;;
57746;SDS011;43580;44.014;20.466;2023-12-20T13:11:15;58.97;;;37.72;;
57746;SDS011;43580;44.014;20.466;2023-12-20T13:13:41;53.55;;;34.78;;
57746;SDS011;43580;44.014;20.466;2023-12-20T13:16:08;47.45;;;32.97;;
57746;SDS011;43580;44.014;20.466;2023-12-20T13:18:34;62.15;;;41.45;;
57746;SDS011;43580;44.014;20.466;2023-12-20T13:21:00;61.15;;;40.53;;
57746;SDS011;43580;44.014;20.466;2023-12-20T13:23:27;95.78;;;55.17;;
57746;SDS011;43580;44.014;20.466;2023-12-20T13:25:53;63.13;;;39.78;;
57746;SDS011;43580;44.014;20.466;2023-12-20T13:28:19;61.75;;;42.75;;
57746;SDS011;43580;44.014;20.466;2023-12-20T13:30:45;64.38;;;41.88;;
57746;SDS011;43580;44.014;20.466;2023-12-20T13:33:11;62.67;;;42.00;;
57746;SDS011;43580;44.014;20.466;2023-12-20T13:35:37;68.63;;;45.08;;
57746;SDS011;43580;44.014;20.466;2023-12-20T13:38:04;83.60;;;56.90;;
57746;SDS011;43580;44.014;20.466;2023-12-20T13:40:30;70.97;;;44.20;;
57746;SDS011;43580;44.014;20.466;2023-12-20T13:42:56;73.05;;;46.20;;
57746;SDS011;43580;44.014;20.466;2023-12-20T13:45:23;75.43;;;50.85;;
57746;SDS011;43580;44.014;20.466;2023-12-20T13:47:50;78.78;;;48.47;;
57746;SDS011;43580;44.014;20.466;2023-12-20T13:50:19;43.42;;;24.17;;
57746;SDS011;43580;44.014;20.466;2023-12-20T13:52:45;16.48;;;8.70;;
57746;SDS011;43580;44.014;20.466;2023-12-20T13:55:11;26.05;;;9.23;;
57746;SDS011;43580;44.014;20.466;2023-12-20T13:57:37;24.65;;;11.00;;
57746;SDS011;43580;44.014;20.466;2023-12-20T14:00:05;23.20;;;14.20;;